createdAt,value
2016-03-09T16:46:16.521Z,990
2016-03-09T16:47:16.524Z,990.04
2016-03-09T16:48:16.527Z,990.05
2016-03-09T16:49:16.529Z,990.04
2016-03-09T16:50:16.626Z,990.02
2016-03-09T16:51:16.613Z,990.03
2016-03-09T16:52:16.599Z,990.09
2016-03-09T16:53:16.524Z,990.06
2016-03-09T16:54:16.620Z,990.06
2016-03-09T16:55:16.529Z,990.05
2016-03-09T16:56:16.532Z,990.05
2016-03-09T16:57:16.535Z,990.04
2016-03-09T16:58:16.537Z,989.97
2016-03-09T16:59:16.541Z,990.04
2016-03-09T17:00:16.543Z,990.04
2016-03-09T17:01:16.546Z,990.04
2016-03-09T17:02:16.565Z,990.05
2016-03-09T17:03:16.536Z,990.07
2016-03-09T17:04:16.539Z,990.12
2016-03-09T17:05:16.541Z,990.1
2016-03-09T17:06:16.544Z,990.13
2016-03-09T17:07:16.547Z,990.12
2016-03-09T17:08:16.580Z,990.11
2016-03-09T17:09:16.536Z,990.11
2016-03-09T17:10:16.601Z,990.12
2016-03-09T17:11:16.541Z,990.1
2016-03-09T17:12:16.544Z,990.1
2016-03-09T17:13:16.546Z,990.09
2016-03-09T17:14:16.549Z,990.1
2016-03-09T17:15:16.536Z,990.07
2016-03-09T17:16:16.539Z,990.09
2016-03-09T17:17:16.542Z,990.09
2016-03-09T17:18:16.544Z,990.1
2016-03-09T17:19:16.547Z,990.09
2016-03-09T17:20:16.550Z,990.14
2016-03-09T17:21:16.616Z,990.16
2016-03-09T17:22:16.555Z,990.13
2016-03-09T17:23:16.543Z,990.12
2016-03-09T17:24:16.545Z,990.1
2016-03-09T17:25:16.548Z,990.11
2016-03-09T17:26:16.551Z,990.13
2016-03-09T17:27:16.553Z,990.1
2016-03-09T17:28:16.618Z,990.11
2016-03-09T17:29:16.542Z,990.11
2016-03-09T17:30:16.545Z,990.08
2016-03-09T17:31:16.548Z,990.11
2016-03-09T17:32:16.550Z,990.14
2016-03-09T17:33:16.554Z,990.09
2016-03-09T17:34:16.666Z,990.12
2016-03-09T17:35:16.622Z,990.11
2016-03-09T17:36:16.609Z,990.12
2016-03-09T17:37:16.549Z,990.12
2016-03-09T17:38:16.552Z,990.13
2016-03-09T17:39:16.554Z,990.13
2016-03-09T17:40:16.557Z,990.14
2016-03-09T17:41:16.560Z,990.17
2016-03-09T17:42:16.546Z,990.14
2016-03-09T17:43:16.549Z,990.15
2016-03-09T17:44:16.552Z,990.15
2016-03-09T17:45:16.555Z,990.13
2016-03-09T17:46:16.542Z,990.13
2016-03-09T17:47:16.545Z,990.15
2016-03-09T17:48:16.547Z,990.12
2016-03-09T17:49:16.550Z,990.14
2016-03-09T17:50:16.552Z,990.14
2016-03-09T17:51:16.555Z,990.14
2016-03-09T17:52:16.605Z,990.11
2016-03-09T17:53:16.545Z,990.09
2016-03-09T17:54:16.548Z,990.12
2016-03-09T17:55:16.551Z,990.1
2016-03-09T17:56:16.553Z,990.16
2016-03-09T17:57:16.556Z,990.1
2016-03-09T17:58:16.542Z,990.15
2016-03-09T17:59:16.670Z,990.16
2016-03-09T18:00:16.548Z,990.15
2016-03-09T18:01:16.550Z,990.18
2016-03-09T18:02:16.553Z,990.15
2016-03-09T18:03:16.540Z,990.19
2016-03-09T18:04:16.543Z,990.2
2016-03-09T18:05:16.546Z,990.22
2016-03-09T18:06:16.548Z,990.21
2016-03-09T18:07:16.551Z,990.21
2016-03-09T18:08:16.554Z,990.22
2016-03-09T18:09:16.541Z,990.21
2016-03-09T18:10:16.638Z,990.24
2016-03-09T18:11:16.547Z,990.22
2016-03-09T18:12:16.549Z,990.21
2016-03-09T18:13:16.536Z,990.17
2016-03-09T18:14:16.538Z,990.2
2016-03-09T18:15:16.541Z,990.18
2016-03-09T18:16:16.544Z,990.18
2016-03-09T18:17:16.546Z,990.21
2016-03-09T18:18:16.549Z,990.22
2016-03-09T18:19:16.552Z,990.18
2016-03-09T18:20:16.540Z,990.24
2016-03-09T18:21:16.543Z,990.2
2016-03-09T18:22:16.545Z,990.22
2016-03-09T18:23:16.548Z,990.2
2016-03-09T18:24:16.535Z,990.17
2016-03-09T18:25:16.553Z,990.2
2016-03-09T18:26:16.556Z,990.21
2016-03-09T18:27:16.542Z,990.19
2016-03-09T18:28:16.545Z,990.17
2016-03-09T18:29:16.532Z,990.2
2016-03-09T18:30:16.645Z,990.2
2016-03-09T18:31:16.537Z,990.22
2016-03-09T18:32:16.573Z,990.18
2016-03-09T18:33:16.543Z,990.2
2016-03-09T18:34:16.608Z,990.19
2016-03-09T18:35:16.533Z,990.19
2016-03-09T18:36:16.536Z,990.21
2016-03-09T18:37:16.538Z,990.18
2016-03-09T18:38:16.525Z,990.21
2016-03-09T18:39:16.544Z,990.19
2016-03-09T18:40:16.531Z,990.18
2016-03-09T18:41:16.533Z,990.16
2016-03-09T18:42:16.520Z,990.17
2016-03-09T18:43:16.523Z,990.2
2016-03-09T18:44:16.526Z,990.24
2016-03-09T18:45:16.528Z,990.2
2016-03-09T18:46:16.516Z,990.24
2016-03-09T18:47:16.518Z,990.23
2016-03-09T18:48:16.521Z,990.24
2016-03-09T18:49:16.524Z,990.25
2016-03-09T18:50:16.526Z,990.24
2016-03-09T18:51:16.513Z,990.28
2016-03-09T18:52:16.515Z,990.28
2016-03-09T18:53:16.519Z,990.27
2016-03-09T18:54:16.521Z,990.24
2016-03-09T18:55:16.509Z,990.26
2016-03-09T18:56:16.512Z,990.23
2016-03-09T18:57:16.514Z,990.25
2016-03-09T18:58:29.251Z,990.27
2016-03-09T18:59:16.519Z,990.3
2016-03-09T19:00:16.506Z,990.27
2016-03-09T19:01:16.509Z,990.3
2016-03-09T19:02:16.512Z,990.33
2016-03-09T19:03:16.498Z,990.35
2016-03-09T19:04:16.501Z,990.34
2016-03-09T19:05:16.504Z,990.3
2016-03-09T19:06:16.507Z,990.29
2016-03-09T19:07:16.495Z,990.31
2016-03-09T19:08:16.497Z,990.27
2016-03-09T19:09:16.500Z,990.32
2016-03-09T19:10:16.502Z,990.35
2016-03-09T19:11:16.489Z,990.35
2016-03-09T19:12:16.491Z,990.29
2016-03-09T19:13:16.496Z,990.39
2016-03-09T19:14:16.490Z,990.36
2016-03-09T19:15:16.487Z,990.35
2016-03-09T19:16:16.485Z,990.36
2016-03-09T19:17:16.487Z,990.32
2016-03-09T19:18:16.491Z,990.34
2016-03-09T19:19:16.493Z,990.36
2016-03-09T19:20:16.480Z,990.35
2016-03-09T19:21:16.498Z,990.34
2016-03-09T19:22:16.485Z,990.35
2016-03-09T19:23:16.502Z,990.33
2016-03-09T19:24:16.475Z,990.33
2016-03-09T19:25:16.478Z,990.35
2016-03-09T19:26:16.476Z,990.37
2016-03-09T19:27:16.464Z,990.34
2016-03-09T19:28:16.481Z,990.31
2016-03-09T19:29:16.469Z,990.32
2016-03-09T19:30:16.472Z,990.36
2016-03-09T19:31:16.474Z,990.33
2016-03-09T19:32:16.461Z,990.31
2016-03-09T19:33:16.463Z,990.33
2016-03-09T19:34:16.467Z,990.32
2016-03-09T19:35:16.453Z,990.32
2016-03-09T19:36:16.456Z,990.3
2016-03-09T19:37:16.459Z,990.36
2016-03-09T19:38:16.462Z,990.32
2016-03-09T19:39:16.464Z,990.33
2016-03-09T19:40:16.437Z,990.29
2016-03-09T19:41:16.443Z,990.3
2016-03-09T19:42:16.445Z,990.28
2016-03-09T19:43:16.903Z,990.29
2016-03-09T19:44:16.450Z,990.29
2016-03-09T19:45:16.439Z,990.28
2016-03-09T19:46:16.646Z,990.26
2016-03-09T19:47:16.438Z,990.27
2016-03-09T19:48:16.430Z,990.31
2016-03-09T19:49:16.436Z,990.3
2016-03-09T19:50:16.438Z,990.31
2016-03-09T19:51:16.638Z,990.33
2016-03-09T19:52:16.448Z,990.35
2016-03-09T19:53:16.433Z,990.34
2016-03-09T19:54:16.419Z,990.33
2016-03-09T19:55:16.417Z,990.35
2016-03-09T19:56:16.422Z,990.37
2016-03-09T19:57:16.421Z,990.33
2016-03-09T19:58:16.426Z,990.39
2016-03-09T19:59:16.425Z,990.31
2016-03-09T20:00:16.408Z,990.36
2016-03-09T20:01:16.418Z,990.37
2016-03-09T20:02:16.408Z,990.37
2016-03-09T20:03:16.408Z,990.4
2016-03-09T20:04:16.403Z,990.38
2016-03-09T20:05:16.411Z,990.38
2016-03-09T20:06:16.398Z,990.39
2016-03-09T20:07:16.404Z,990.38
2016-03-09T20:08:16.404Z,990.4
2016-03-09T20:09:16.405Z,990.37
2016-03-09T20:10:16.389Z,990.38
2016-03-09T20:11:16.387Z,990.36
2016-03-09T20:12:16.398Z,990.38
2016-03-09T20:13:16.387Z,990.37
2016-03-09T20:14:16.392Z,990.39
2016-03-09T20:15:16.380Z,990.41
2016-03-09T20:16:16.382Z,990.41
2016-03-09T20:17:16.385Z,990.36
2016-03-09T20:18:16.380Z,990.39
2016-03-09T20:19:16.372Z,990.37
2016-03-09T20:20:16.419Z,990.37
2016-03-09T20:21:16.371Z,990.36
2016-03-09T20:22:16.373Z,990.37
2016-03-09T20:23:16.366Z,990.36
2016-03-09T20:24:16.371Z,990.34
2016-03-09T20:25:16.357Z,990.34
2016-03-09T20:26:16.351Z,990.34
2016-03-09T20:27:16.359Z,990.34
2016-03-09T20:28:16.355Z,990.31
2016-03-09T20:29:16.360Z,990.33
2016-03-09T20:30:16.361Z,990.32
2016-03-09T20:31:16.361Z,990.32
2016-03-09T20:32:16.340Z,990.33
2016-03-09T20:33:16.344Z,990.28
2016-03-09T20:34:16.339Z,990.3
2016-03-09T20:35:16.334Z,990.31
2016-03-09T20:36:16.330Z,990.31
2016-03-09T20:37:16.343Z,990.31
2016-03-09T20:38:16.335Z,990.34
2016-03-09T20:39:16.339Z,990.33
2016-03-09T20:40:16.331Z,990.31
2016-03-09T20:41:16.333Z,990.31
2016-03-09T20:42:16.317Z,990.31
2016-03-09T20:43:16.317Z,990.31
2016-03-09T20:44:16.317Z,990.36
2016-03-09T20:45:16.314Z,990.31
2016-03-09T20:46:16.320Z,990.29
2016-03-09T20:47:16.319Z,990.28
2016-03-09T20:48:16.395Z,990.34
2016-03-09T20:49:16.307Z,990.31
2016-03-09T20:50:16.375Z,990.29
2016-03-09T20:51:16.316Z,990.27
2016-03-09T20:52:16.381Z,990.31
2016-03-09T20:53:16.302Z,990.31
2016-03-09T20:54:16.319Z,990.33
2016-03-09T20:55:16.300Z,990.33
2016-03-09T20:56:16.343Z,990.31
2016-03-09T20:57:16.317Z,990.36
2016-03-09T20:58:16.286Z,990.35
2016-03-09T20:59:16.343Z,990.32
2016-03-09T21:00:16.354Z,990.38
2016-03-09T21:01:16.370Z,990.35
2016-03-09T21:02:16.327Z,990.35
2016-03-09T21:03:16.348Z,990.36
2016-03-09T21:04:16.345Z,990.34
2016-03-09T21:05:16.361Z,990.37
2016-03-09T21:06:16.275Z,990.32
2016-03-09T21:07:16.265Z,990.36
2016-03-09T21:08:16.313Z,990.36
2016-03-09T21:09:16.255Z,990.36
2016-03-09T21:10:16.255Z,990.35
2016-03-09T21:11:16.251Z,990.37
2016-03-09T21:12:16.254Z,990.33
2016-03-09T21:13:16.259Z,990.35
2016-03-09T21:14:16.246Z,990.38
2016-03-09T21:15:16.339Z,990.38
2016-03-09T21:16:16.244Z,990.43
2016-03-09T21:17:16.242Z,990.41
2016-03-09T21:18:16.296Z,990.43
2016-03-09T21:19:19.253Z,990.39
2016-03-09T21:20:16.304Z,990.41
2016-03-09T21:21:16.264Z,990.42
2016-03-09T21:22:16.239Z,990.43
2016-03-09T21:23:16.320Z,990.49
2016-03-09T21:24:16.237Z,990.46
2016-03-09T21:25:16.228Z,990.48
2016-03-09T21:26:16.261Z,990.43
2016-03-09T21:27:16.259Z,990.44
2016-03-09T21:28:16.234Z,990.44
2016-03-09T21:29:16.213Z,990.47
2016-03-09T21:30:16.220Z,990.43
2016-03-09T21:31:16.213Z,990.38
2016-03-09T21:32:16.219Z,990.41
2016-03-09T21:33:16.207Z,990.38
2016-03-09T21:34:16.209Z,990.42
2016-03-09T21:35:16.214Z,990.43
2016-03-09T21:36:16.209Z,990.43
2016-03-09T21:37:16.199Z,990.45
2016-03-09T21:38:16.206Z,990.42
2016-03-09T21:39:16.197Z,990.4
2016-03-09T21:40:16.205Z,990.41
2016-03-09T21:41:16.192Z,990.48
2016-03-09T21:42:16.216Z,990.45
2016-03-09T21:43:16.185Z,990.45
2016-03-09T21:44:16.191Z,990.45
2016-03-09T21:45:16.187Z,990.45
2016-03-09T21:46:16.182Z,990.52
2016-03-09T21:47:16.184Z,990.48
2016-03-09T21:48:16.187Z,990.47
2016-03-09T21:49:16.268Z,990.46
2016-03-09T21:50:16.177Z,990.51
2016-03-09T21:51:16.163Z,990.49
2016-03-09T21:52:16.167Z,990.48
2016-03-09T21:53:16.169Z,990.52
2016-03-09T21:54:16.172Z,990.53
2016-03-09T21:55:16.160Z,990.54
2016-03-09T21:56:16.162Z,990.55
2016-03-09T21:57:16.165Z,990.54
2016-03-09T21:58:16.229Z,990.56
2016-03-09T21:59:16.171Z,990.54
2016-03-09T22:00:16.157Z,990.59
2016-03-09T22:01:16.160Z,990.58
2016-03-09T22:02:16.397Z,990.57
2016-03-09T22:03:16.149Z,990.56
2016-03-09T22:04:16.152Z,990.6
2016-03-09T22:05:16.154Z,990.61
2016-03-09T22:06:16.147Z,990.62
2016-03-09T22:07:16.189Z,990.66
2016-03-09T22:08:16.223Z,990.65
2016-03-09T22:09:16.334Z,990.66
2016-03-09T22:10:16.134Z,990.62
2016-03-09T22:11:16.137Z,990.61
2016-03-09T22:12:16.139Z,990.6
2016-03-09T22:13:16.126Z,990.64
2016-03-09T22:14:16.129Z,990.67
2016-03-09T22:15:16.132Z,990.64
2016-03-09T22:16:16.119Z,990.65
2016-03-09T22:17:16.122Z,990.63
2016-03-09T22:18:16.124Z,990.69
2016-03-09T22:19:16.111Z,990.67
2016-03-09T22:20:16.114Z,990.67
2016-03-09T22:21:16.116Z,990.64
2016-03-09T22:22:16.119Z,990.66
2016-03-09T22:23:16.107Z,990.75
2016-03-09T22:24:16.109Z,990.73
2016-03-09T22:25:16.112Z,990.72
2016-03-09T22:26:16.099Z,990.72
2016-03-09T22:27:16.101Z,990.76
2016-03-09T22:28:16.089Z,990.74
2016-03-09T22:29:16.091Z,990.74
2016-03-09T22:30:16.094Z,990.74
2016-03-09T22:31:16.097Z,990.72
2016-03-09T22:32:16.099Z,990.69
2016-03-09T22:33:16.087Z,990.64
2016-03-09T22:34:16.090Z,990.67
2016-03-09T22:35:16.092Z,990.67
2016-03-09T22:36:16.079Z,990.69
2016-03-09T22:37:16.082Z,990.66
2016-03-09T22:38:16.084Z,990.68
2016-03-09T22:39:16.071Z,990.67
2016-03-09T22:40:16.073Z,990.68
2016-03-09T22:41:16.065Z,990.68
2016-03-09T22:42:16.054Z,990.71
2016-03-09T22:43:16.029Z,990.62
2016-03-09T22:44:16.018Z,990.62
2016-03-09T22:45:15.993Z,990.61
2016-03-09T22:46:15.989Z,990.63
2016-03-09T22:47:15.987Z,990.64
2016-03-09T22:48:15.971Z,990.62
2016-03-09T22:49:15.983Z,990.58
2016-03-09T22:50:15.966Z,990.57
2016-03-09T22:51:15.967Z,990.65
2016-03-09T22:52:15.952Z,990.59
2016-03-09T22:53:15.953Z,990.6
2016-03-09T22:54:15.954Z,990.6
2016-03-09T22:55:15.940Z,990.53
2016-03-09T22:56:15.942Z,990.56
2016-03-09T22:57:15.960Z,990.56
2016-03-09T22:58:15.931Z,990.56
2016-03-09T22:59:15.995Z,990.56
2016-03-09T23:00:15.935Z,990.55
2016-03-09T23:01:15.921Z,990.57
2016-03-09T23:02:15.924Z,990.58
2016-03-09T23:03:15.926Z,990.55
2016-03-09T23:04:15.930Z,990.61
2016-03-09T23:05:15.932Z,990.58
2016-03-09T23:06:15.919Z,990.6
2016-03-09T23:07:15.921Z,990.6
2016-03-09T23:08:15.909Z,990.6
2016-03-09T23:09:15.912Z,990.58
2016-03-09T23:10:15.914Z,990.59
2016-03-09T23:11:15.901Z,990.57
2016-03-09T23:12:15.919Z,990.59
2016-03-09T23:13:15.906Z,990.63
2016-03-09T23:14:15.894Z,990.64
2016-03-09T23:15:15.896Z,990.63
2016-03-09T23:16:15.899Z,990.61
2016-03-09T23:17:15.902Z,990.63
2016-03-09T23:18:15.889Z,990.61
2016-03-09T23:19:15.891Z,990.67
2016-03-09T23:20:15.894Z,990.62
2016-03-09T23:21:15.896Z,990.63
2016-03-09T23:22:15.884Z,990.66
2016-03-09T23:23:15.886Z,990.65
2016-03-09T23:24:15.874Z,990.67
2016-03-09T23:25:15.876Z,990.7
2016-03-09T23:26:15.879Z,990.69
2016-03-09T23:27:15.901Z,990.7
2016-03-09T23:28:15.916Z,990.7
2016-03-09T23:29:15.872Z,990.67
2016-03-09T23:30:15.886Z,990.67
2016-03-09T23:31:15.873Z,990.73
2016-03-09T23:32:15.861Z,990.71
2016-03-09T23:33:15.941Z,990.7
2016-03-09T23:34:15.866Z,990.71
2016-03-09T23:35:15.853Z,990.71
2016-03-09T23:36:15.855Z,990.75
2016-03-09T23:37:15.857Z,990.7
2016-03-09T23:38:15.844Z,990.69
2016-03-09T23:39:15.847Z,990.67
2016-03-09T23:40:15.850Z,990.7
2016-03-09T23:41:15.837Z,990.69
2016-03-09T23:42:15.841Z,990.69
2016-03-09T23:43:15.858Z,990.7
2016-03-09T23:44:15.846Z,990.69
2016-03-09T23:45:15.832Z,990.66
2016-03-09T23:46:15.835Z,990.66
2016-03-09T23:47:15.838Z,990.74
2016-03-09T23:48:15.825Z,990.71
2016-03-09T23:49:15.827Z,990.72
2016-03-09T23:50:15.829Z,990.67
2016-03-09T23:51:15.817Z,990.7
2016-03-09T23:52:15.820Z,990.72
2016-03-09T23:53:15.838Z,990.73
2016-03-09T23:54:15.825Z,990.75
2016-03-09T23:55:15.813Z,990.72
2016-03-09T23:56:15.815Z,990.76
2016-03-09T23:57:15.818Z,990.78
2016-03-09T23:58:15.820Z,990.78
2016-03-09T23:59:15.808Z,990.8
